ROI weather

Dyess Army Air Field
Roi-Namur, Kwajalein, Marshall Islands

Public forecast

Using degrees Celsius for public forecast. Weather courtesy of forecast.io.

METAR (pilot weather report)

Closest report is Bucholz Army Air Field, 43.5 nm (80.5 km) SSE. Retrieved 2019/03/26 04:40 UTC (0 seconds ago):

PKWA 260440Z AUTO 07017G20KT 10SM CLR 30/23 A2983 RMK AO2 T03000232

TAF (pilot weather forecast)

Forecast is more than 12 hours old.

Closest forecast is Bucholz Army Air Field, 43.5 nm (80.5 km) SSE. Retrieved 2019/03/25 00:25 UTC (1 day ago):

TAF PKWA 252321Z 2600/2624 07018KT P6SM SCT025